createdAt,value
2023-01-22T00:01:03.655Z,102152.00
2023-01-22T00:03:31.497Z,102142.00
2023-01-22T00:06:00.166Z,102136.00
2023-01-22T00:08:27.845Z,102136.00
2023-01-22T00:10:57.321Z,102138.00
2023-01-22T00:13:27.010Z,102152.00
2023-01-22T00:15:55.589Z,102137.00
2023-01-22T00:18:23.245Z,102138.00
2023-01-22T00:20:52.499Z,102141.00
2023-01-22T00:23:20.869Z,102126.00
2023-01-22T00:25:48.573Z,102137.00
2023-01-22T00:28:17.891Z,102122.00
2023-01-22T00:30:45.664Z,102134.00
2023-01-22T00:33:13.354Z,102119.00
2023-01-22T00:35:41.013Z,102118.00
2023-01-22T00:38:08.665Z,102114.00
2023-01-22T00:40:36.363Z,102120.00
2023-01-22T00:43:04.090Z,102119.00
2023-01-22T00:45:34.065Z,102113.00
2023-01-22T00:48:01.787Z,102114.00
2023-01-22T00:50:29.791Z,102119.00
2023-01-22T00:52:57.713Z,102118.00
2023-01-22T00:55:25.415Z,102126.00
2023-01-22T00:57:53.762Z,102109.00
2023-01-22T01:00:22.553Z,102117.00
2023-01-22T01:03:09.240Z,102113.00
2023-01-22T01:05:36.934Z,102110.00
2023-01-22T01:08:05.137Z,102103.00
2023-01-22T01:10:33.007Z,102114.00
2023-01-22T01:13:00.765Z,102103.00
2023-01-22T01:15:28.495Z,102110.00
2023-01-22T01:17:57.546Z,102102.00
2023-01-22T01:20:25.207Z,102102.00
2023-01-22T01:22:53.024Z,102103.00
2023-01-22T01:25:20.677Z,102108.00
2023-01-22T01:27:48.320Z,102096.00
2023-01-22T01:30:17.132Z,102093.00
2023-01-22T01:32:45.045Z,102098.00
2023-01-22T01:35:14.112Z,102097.00
2023-01-22T01:37:41.813Z,102095.00
2023-01-22T01:40:10.618Z,102078.00
2023-01-22T01:42:40.850Z,102082.00
2023-01-22T01:45:23.273Z,102093.00
2023-01-22T01:47:55.756Z,102089.00
2023-01-22T01:50:27.471Z,102089.00
2023-01-22T01:52:55.524Z,102084.00
2023-01-22T01:55:26.721Z,102082.00
2023-01-22T01:57:56.001Z,102083.00
2023-01-22T02:00:23.719Z,102096.00
2023-01-22T02:02:51.774Z,102089.00
2023-01-22T02:05:20.570Z,102092.00
2023-01-22T02:07:49.809Z,102086.00
2023-01-22T02:10:36.550Z,102092.00
2023-01-22T02:13:28.212Z,102095.00
2023-01-22T02:16:21.724Z,102059.00
2023-01-22T02:19:09.917Z,102098.00
2023-01-22T02:21:59.814Z,102098.00
2023-01-22T02:25:19.083Z,102096.00
2023-01-22T02:28:13.717Z,102085.00
2023-01-22T02:38:07.699Z,102093.00
2023-01-22T02:40:36.327Z,102080.00
2023-01-22T02:43:04.104Z,102087.00
2023-01-22T02:45:31.773Z,102073.00
2023-01-22T02:47:59.727Z,102067.00
2023-01-22T02:50:27.419Z,102076.00
2023-01-22T02:52:55.434Z,102034.00
2023-01-22T02:56:24.896Z,102048.00
2023-01-22T02:58:47.734Z,102057.00
2023-01-22T03:01:30.419Z,102076.00
2023-01-22T03:06:55.088Z,102075.00
2023-01-22T03:09:44.061Z,102077.00
2023-01-22T03:12:23.021Z,102046.00
2023-01-22T03:15:23.983Z,102042.00
2023-01-22T03:18:20.062Z,102082.00
2023-01-22T03:21:11.727Z,102064.00
2023-01-22T03:24:42.937Z,102071.00
2023-01-22T03:30:05.906Z,102027.00
2023-01-22T03:33:13.943Z,102065.00
2023-01-22T03:35:50.661Z,102067.00
2023-01-22T03:38:23.966Z,102011.00
2023-01-22T03:40:56.889Z,102031.00
2023-01-22T03:43:27.753Z,102030.00
2023-01-22T03:46:07.638Z,102067.00
2023-01-22T03:48:48.182Z,102018.00
2023-01-22T03:51:20.081Z,102040.00
2023-01-22T03:53:48.790Z,102079.00
2023-01-22T03:56:22.169Z,102037.00
2023-01-22T03:58:57.976Z,102069.00
2023-01-22T04:01:32.009Z,102062.00
2023-01-22T04:04:00.040Z,102028.00
2023-01-22T04:06:28.378Z,102038.00
2023-01-22T04:09:04.772Z,102058.00
2023-01-22T04:11:40.498Z,102048.00
2023-01-22T04:14:08.696Z,102041.00
2023-01-22T04:16:39.526Z,102044.00
2023-01-22T04:19:15.065Z,102086.00
2023-01-22T04:21:45.457Z,102086.00
2023-01-22T04:24:13.614Z,102067.00
2023-01-22T04:26:57.373Z,102079.00
2023-01-22T04:29:50.040Z,102038.00
2023-01-22T04:32:31.764Z,102081.00
2023-01-22T04:35:09.467Z,102063.00
2023-01-22T04:37:43.503Z,102045.00
2023-01-22T04:40:25.232Z,102062.00
2023-01-22T04:43:09.140Z,102034.00
2023-01-22T04:45:47.844Z,102045.00
2023-01-22T04:48:22.326Z,102075.00
2023-01-22T04:50:52.709Z,102080.00
2023-01-22T04:53:22.571Z,102077.00
2023-01-22T04:55:56.990Z,102086.00
2023-01-22T04:58:26.817Z,102065.00
2023-01-22T05:00:59.939Z,102077.00
2023-01-22T05:03:50.336Z,102075.00
2023-01-22T05:06:20.808Z,102020.00
2023-01-22T05:08:48.719Z,102091.00
2023-01-22T05:11:16.680Z,102043.00
2023-01-22T05:13:44.685Z,102030.00
2023-01-22T05:16:15.568Z,102044.00
2023-01-22T05:18:50.413Z,102049.00
2023-01-22T05:21:22.414Z,102045.00
2023-01-22T05:23:50.575Z,102032.00
2023-01-22T05:26:38.922Z,102087.00
2023-01-22T05:29:10.872Z,102074.00
2023-01-22T05:31:41.489Z,102028.00
2023-01-22T05:34:11.199Z,102046.00
2023-01-22T05:36:39.324Z,102036.00
2023-01-22T05:39:10.731Z,102094.00
2023-01-22T05:41:40.211Z,102111.00
2023-01-22T05:44:12.287Z,102060.00
2023-01-22T05:46:42.282Z,102092.00
2023-01-22T05:49:11.917Z,102068.00
2023-01-22T05:51:40.286Z,102056.00
2023-01-22T05:54:08.204Z,102088.00
2023-01-22T05:56:39.527Z,102073.00
2023-01-22T05:59:11.568Z,102105.00
2023-01-22T06:01:45.121Z,102085.00
2023-01-22T06:04:14.527Z,102105.00
2023-01-22T06:06:55.763Z,102100.00
2023-01-22T06:09:25.766Z,102076.00
2023-01-22T06:12:09.184Z,102070.00
2023-01-22T06:14:40.388Z,102110.00
2023-01-22T06:17:08.493Z,102117.00
2023-01-22T06:19:57.463Z,102102.00
2023-01-22T06:22:25.902Z,102102.00
2023-01-22T06:24:55.695Z,102073.00
2023-01-22T06:27:55.980Z,102108.00
2023-01-22T06:30:46.458Z,102115.00
2023-01-22T06:33:15.004Z,102076.00
2023-01-22T06:35:58.420Z,102122.00
2023-01-22T06:38:54.154Z,102121.00
2023-01-22T06:41:30.924Z,102097.00
2023-01-22T06:43:59.407Z,102100.00
2023-01-22T06:46:29.827Z,102140.00
2023-01-22T06:49:02.812Z,102105.00
2023-01-22T06:51:34.914Z,102157.00
2023-01-22T06:54:03.130Z,102108.00
2023-01-22T06:56:34.053Z,102131.00
2023-01-22T06:59:12.632Z,102110.00
2023-01-22T07:02:01.909Z,102142.00
2023-01-22T07:04:39.517Z,102157.00
2023-01-22T07:07:12.884Z,102132.00
2023-01-22T07:09:42.999Z,102155.00
2023-01-22T07:12:19.082Z,102128.00
2023-01-22T07:15:09.830Z,102166.00
2023-01-22T07:17:43.243Z,102149.00
2023-01-22T07:20:31.115Z,102176.00
2023-01-22T07:23:00.896Z,102144.00
2023-01-22T07:25:47.002Z,102137.00
2023-01-22T07:32:13.896Z,102178.00
2023-01-22T07:44:40.771Z,102136.00
2023-01-22T07:56:49.400Z,102197.00
2023-01-22T07:59:17.180Z,102208.00
2023-01-22T08:01:44.903Z,102204.00
2023-01-22T08:04:13.895Z,102210.00
2023-01-22T08:06:41.531Z,102211.00
2023-01-22T08:09:09.248Z,102206.00
2023-01-22T08:11:37.015Z,102205.00
2023-01-22T08:14:04.707Z,102191.00
2023-01-22T08:16:32.585Z,102199.00
2023-01-22T08:19:00.319Z,102222.00
2023-01-22T08:21:29.517Z,102217.00
2023-01-22T08:23:57.150Z,102211.00
2023-01-22T08:26:24.788Z,102215.00
2023-01-22T08:28:52.628Z,102209.00
2023-01-22T08:31:27.907Z,102226.00
2023-01-22T08:33:56.245Z,102226.00
2023-01-22T08:36:23.916Z,102214.00
2023-01-22T08:38:53.201Z,102211.00
2023-01-22T08:41:20.883Z,102216.00
2023-01-22T08:43:48.572Z,102217.00
2023-01-22T08:46:16.424Z,102223.00
2023-01-22T08:48:44.305Z,102217.00
2023-01-22T08:51:12.470Z,102221.00
2023-01-22T08:53:40.354Z,102224.00
2023-01-22T08:56:09.794Z,102228.00
2023-01-22T08:58:37.440Z,102236.00
2023-01-22T09:01:05.582Z,102233.00
2023-01-22T09:03:33.345Z,102239.00
2023-01-22T09:06:01.114Z,102238.00
2023-01-22T09:08:28.807Z,102232.00
2023-01-22T09:10:56.501Z,102248.00
2023-01-22T09:13:25.535Z,102250.00
2023-01-22T09:15:58.498Z,102250.00
2023-01-22T09:18:26.812Z,102254.00
2023-01-22T09:20:54.632Z,102259.00
2023-01-22T09:23:22.533Z,102256.00
2023-01-22T09:25:50.306Z,102254.00
2023-01-22T09:28:18.077Z,102259.00
2023-01-22T09:30:47.206Z,102269.00
2023-01-22T09:33:15.120Z,102258.00
2023-01-22T09:35:42.800Z,102261.00
2023-01-22T09:38:14.143Z,102251.00
2023-01-22T09:40:46.520Z,102256.00
2023-01-22T09:43:26.375Z,102252.00
2023-01-22T09:45:58.533Z,102266.00
2023-01-22T09:48:31.879Z,102274.00
2023-01-22T09:51:00.332Z,102274.00
2023-01-22T09:53:30.508Z,102267.00
2023-01-22T09:55:58.966Z,102273.00
2023-01-22T09:58:28.560Z,102263.00
2023-01-22T10:01:01.026Z,102264.00
2023-01-22T10:03:34.826Z,102265.00
2023-01-22T10:06:08.080Z,102268.00
2023-01-22T10:08:41.027Z,102262.00
2023-01-22T10:11:10.715Z,102272.00
2023-01-22T10:13:39.807Z,102272.00
2023-01-22T10:16:10.931Z,102275.00
2023-01-22T10:18:43.109Z,102268.00
2023-01-22T10:21:18.843Z,102262.00
2023-01-22T10:23:46.689Z,102259.00
2023-01-22T10:26:18.248Z,102262.00
2023-01-22T10:28:48.620Z,102265.00
2023-01-22T10:31:29.301Z,102255.00
2023-01-22T10:33:58.721Z,102263.00
2023-01-22T10:36:27.158Z,102265.00
2023-01-22T10:39:05.057Z,102273.00
2023-01-22T10:41:32.867Z,102273.00
2023-01-22T10:44:10.555Z,102275.00
2023-01-22T10:46:39.693Z,102270.00
2023-01-22T10:49:08.396Z,102274.00
2023-01-22T10:51:38.912Z,102279.00
2023-01-22T10:54:20.680Z,102270.00
2023-01-22T10:56:49.118Z,102275.00
2023-01-22T10:59:23.949Z,102281.00
2023-01-22T11:01:59.263Z,102273.00
2023-01-22T11:04:28.677Z,102271.00
2023-01-22T11:07:00.887Z,102277.00
2023-01-22T11:09:37.057Z,102276.00
2023-01-22T11:12:10.657Z,102268.00
2023-01-22T11:14:39.960Z,102280.00
2023-01-22T11:17:16.583Z,102282.00
2023-01-22T11:19:52.559Z,102277.00
2023-01-22T11:22:27.963Z,102281.00
2023-01-22T11:24:55.765Z,102277.00
2023-01-22T11:27:55.990Z,102285.00
2023-01-22T11:30:51.319Z,102274.00
2023-01-22T11:33:38.748Z,102274.00
2023-01-22T11:36:11.757Z,102272.00
2023-01-22T11:38:49.049Z,102262.00
2023-01-22T11:41:38.602Z,102258.00
2023-01-22T11:44:24.149Z,102268.00
2023-01-22T11:47:07.793Z,102254.00
2023-01-22T11:49:55.367Z,102259.00
2023-01-22T11:52:34.129Z,102255.00
2023-01-22T11:55:27.100Z,102242.00
2023-01-22T11:58:07.130Z,102252.00
2023-01-22T12:00:45.605Z,102243.00
2023-01-22T12:03:45.885Z,102245.00
2023-01-22T12:06:31.458Z,102244.00
2023-01-22T12:09:07.667Z,102251.00
2023-01-22T12:11:54.402Z,102246.00
2023-01-22T12:14:34.202Z,102241.00
2023-01-22T12:17:13.262Z,102252.00
2023-01-22T12:19:58.695Z,102249.00
2023-01-22T12:22:36.657Z,102243.00
2023-01-22T12:25:15.128Z,102245.00
2023-01-22T12:27:48.347Z,102251.00
2023-01-22T12:30:22.827Z,102256.00
2023-01-22T12:32:55.709Z,102264.00
2023-01-22T12:35:25.852Z,102261.00
2023-01-22T12:38:03.836Z,102253.00
2023-01-22T12:40:45.850Z,102254.00
2023-01-22T12:43:13.579Z,102253.00
2023-01-22T12:45:46.194Z,102243.00
2023-01-22T12:48:24.486Z,102247.00
2023-01-22T12:50:54.068Z,102260.00
2023-01-22T12:53:26.319Z,102244.00
2023-01-22T12:56:05.593Z,102252.00
2023-01-22T12:58:35.981Z,102255.00
2023-01-22T13:01:07.907Z,102257.00
2023-01-22T13:03:36.209Z,102256.00
2023-01-22T13:06:17.243Z,102253.00
2023-01-22T13:08:47.080Z,102258.00
2023-01-22T13:11:27.416Z,102256.00
2023-01-22T13:14:09.703Z,102258.00
2023-01-22T13:16:42.714Z,102262.00
2023-01-22T13:19:21.875Z,102264.00
2023-01-22T13:21:50.336Z,102268.00
2023-01-22T13:24:21.470Z,102263.00
2023-01-22T13:26:55.257Z,102275.00
2023-01-22T13:29:27.201Z,102281.00
2023-01-22T13:31:56.439Z,102282.00
2023-01-22T13:34:24.432Z,102277.00
2023-01-22T13:36:52.928Z,102288.00
2023-01-22T13:39:25.843Z,102277.00
2023-01-22T13:41:55.620Z,102290.00
2023-01-22T13:44:27.743Z,102296.00
2023-01-22T13:46:55.767Z,102294.00
2023-01-22T13:49:26.156Z,102299.00
2023-01-22T13:51:55.236Z,102294.00
2023-01-22T13:54:36.797Z,102279.00
2023-01-22T13:57:05.426Z,102290.00
2023-01-22T13:59:35.146Z,102292.00
2023-01-22T14:02:13.248Z,102294.00
2023-01-22T14:04:41.055Z,102305.00
2023-01-22T14:07:08.712Z,102296.00
2023-01-22T14:09:43.096Z,102280.00
2023-01-22T14:12:16.056Z,102266.00
2023-01-22T14:14:44.864Z,102296.00
2023-01-22T14:17:24.701Z,102311.00
2023-01-22T14:19:59.124Z,102276.00
2023-01-22T14:22:27.654Z,102317.00
2023-01-22T14:24:57.527Z,102285.00
2023-01-22T14:27:29.349Z,102317.00
2023-01-22T14:29:57.570Z,102315.00
2023-01-22T14:32:26.879Z,102290.00
2023-01-22T14:34:55.062Z,102322.00
2023-01-22T14:37:23.405Z,102282.00
2023-01-22T14:39:51.575Z,102299.00
2023-01-22T14:42:29.099Z,102302.00
2023-01-22T14:44:57.156Z,102283.00
2023-01-22T14:47:25.146Z,102337.00
2023-01-22T14:49:55.789Z,102299.00
2023-01-22T14:52:23.747Z,102301.00
2023-01-22T14:54:54.922Z,102325.00
2023-01-22T14:57:22.940Z,102308.00
2023-01-22T14:59:53.116Z,102351.00
2023-01-22T15:02:21.349Z,102350.00
2023-01-22T15:04:49.465Z,102358.00
2023-01-22T15:07:17.546Z,102321.00
2023-01-22T15:09:45.503Z,102321.00
2023-01-22T15:12:13.572Z,102347.00
2023-01-22T15:14:41.702Z,102353.00
2023-01-22T15:17:11.580Z,102319.00
2023-01-22T15:20:16.119Z,102343.00
2023-01-22T15:22:44.279Z,102326.00
2023-01-22T15:25:12.542Z,102320.00
2023-01-22T15:27:40.651Z,102354.00
2023-01-22T15:30:09.943Z,102345.00
2023-01-22T15:32:39.320Z,102361.00
2023-01-22T15:35:07.860Z,102308.00
2023-01-22T15:37:36.013Z,102325.00
2023-01-22T15:40:04.204Z,102343.00
2023-01-22T15:42:32.304Z,102329.00
2023-01-22T15:45:00.742Z,102313.00
2023-01-22T15:47:28.807Z,102329.00
2023-01-22T15:49:58.221Z,102330.00
2023-01-22T15:52:50.202Z,102371.00
2023-01-22T15:55:55.208Z,102383.00
2023-01-22T15:58:29.079Z,102374.00
2023-01-22T16:00:57.503Z,102399.00
2023-01-22T16:03:25.972Z,102360.00
2023-01-22T16:05:55.580Z,102348.00
2023-01-22T16:08:23.836Z,102341.00
2023-01-22T16:10:54.209Z,102339.00
2023-01-22T16:13:22.350Z,102354.00
2023-01-22T16:15:58.061Z,102368.00
2023-01-22T16:18:26.425Z,102347.00
2023-01-22T16:20:56.465Z,102385.00
2023-01-22T16:23:24.527Z,102378.00
2023-01-22T16:25:52.918Z,102330.00
2023-01-22T16:28:20.984Z,102348.00
2023-01-22T16:30:51.258Z,102397.00
2023-01-22T16:33:21.868Z,102390.00
2023-01-22T16:35:50.057Z,102356.00
2023-01-22T16:38:19.561Z,102399.00
2023-01-22T16:40:47.584Z,102416.00
2023-01-22T16:43:15.598Z,102364.00
2023-01-22T16:45:44.342Z,102384.00
2023-01-22T16:48:12.305Z,102378.00
2023-01-22T16:50:40.585Z,102405.00
2023-01-22T16:53:08.864Z,102363.00
2023-01-22T16:55:38.311Z,102387.00
2023-01-22T16:58:06.364Z,102401.00
2023-01-22T17:00:34.422Z,102415.00
2023-01-22T17:03:02.528Z,102391.00
2023-01-22T17:05:30.573Z,102385.00
2023-01-22T17:07:58.588Z,102423.00
2023-01-22T17:10:26.709Z,102370.00
2023-01-22T17:12:59.367Z,102413.00
2023-01-22T17:15:27.394Z,102430.00
2023-01-22T17:17:55.746Z,102439.00
2023-01-22T17:20:23.814Z,102383.00
2023-01-22T17:22:52.423Z,102449.00
2023-01-22T17:25:21.751Z,102393.00
2023-01-22T17:28:11.276Z,102435.00
2023-01-22T17:30:41.391Z,102428.00
2023-01-22T17:33:09.463Z,102378.00
2023-01-22T17:35:37.466Z,102437.00
2023-01-22T17:38:05.683Z,102418.00
2023-01-22T17:40:33.655Z,102448.00
2023-01-22T17:43:02.415Z,102398.00
2023-01-22T17:45:30.386Z,102404.00
2023-01-22T17:48:00.244Z,102465.00
2023-01-22T17:50:28.441Z,102413.00
2023-01-22T17:52:57.146Z,102443.00
2023-01-22T17:55:26.748Z,102452.00
2023-01-22T17:57:59.785Z,102446.00
2023-01-22T18:00:31.589Z,102473.00
2023-01-22T18:03:01.553Z,102467.00
2023-01-22T18:05:30.472Z,102413.00
2023-01-22T18:07:58.553Z,102468.00
2023-01-22T18:10:27.755Z,102473.00
2023-01-22T18:12:57.905Z,102434.00
2023-01-22T18:15:25.847Z,102449.00
2023-01-22T18:17:54.319Z,102472.00
2023-01-22T18:20:23.656Z,102454.00
2023-01-22T18:22:51.712Z,102453.00
2023-01-22T18:25:20.427Z,102475.00
2023-01-22T18:27:48.614Z,102477.00
2023-01-22T18:30:18.298Z,102479.00
2023-01-22T18:32:50.566Z,102444.00
2023-01-22T18:43:00.847Z,102473.00
2023-01-22T18:45:49.845Z,102491.00
2023-01-22T18:48:29.675Z,102441.00
2023-01-22T18:55:07.319Z,102515.00
2023-01-22T18:58:37.313Z,102455.00
2023-01-22T19:02:10.810Z,102441.00
2023-01-22T19:05:35.668Z,102497.00
2023-01-22T19:16:08.547Z,102480.00
2023-01-22T19:18:47.837Z,102500.00
2023-01-22T19:21:40.283Z,102510.00
2023-01-22T19:25:22.971Z,102483.00
2023-01-22T19:28:15.997Z,102518.00
2023-01-22T19:34:35.545Z,102490.00
2023-01-22T19:37:11.083Z,102528.00
2023-01-22T19:39:57.191Z,102492.00
2023-01-22T19:42:47.417Z,102539.00
2023-01-22T19:45:43.672Z,102493.00
2023-01-22T19:48:26.718Z,102491.00
2023-01-22T19:51:37.927Z,102490.00
2023-01-22T20:01:29.776Z,102505.00
2023-01-22T20:03:57.676Z,102518.00
2023-01-22T20:06:26.270Z,102530.00
2023-01-22T20:08:56.752Z,102510.00
2023-01-22T20:11:25.101Z,102542.00
2023-01-22T20:13:53.580Z,102549.00
2023-01-22T20:21:10.080Z,102544.00
2023-01-22T20:23:40.574Z,102554.00
2023-01-22T20:26:09.139Z,102541.00
2023-01-22T20:28:39.544Z,102552.00
2023-01-22T20:31:16.455Z,102518.00
2023-01-22T20:33:44.509Z,102541.00
2023-01-22T20:36:29.775Z,102528.00
2023-01-22T20:39:09.116Z,102549.00
2023-01-22T20:41:40.062Z,102545.00
2023-01-22T20:44:17.738Z,102562.00
2023-01-22T20:46:45.678Z,102536.00
2023-01-22T20:49:22.438Z,102564.00
2023-01-22T20:52:08.527Z,102567.00
2023-01-22T20:55:00.997Z,102565.00
2023-01-22T20:58:00.364Z,102554.00
2023-01-22T21:00:45.990Z,102518.00
2023-01-22T21:03:19.527Z,102518.00
2023-01-22T21:05:47.383Z,102566.00
2023-01-22T21:08:16.669Z,102544.00
2023-01-22T21:10:45.140Z,102569.00
2023-01-22T21:13:13.011Z,102516.00
2023-01-22T21:15:41.028Z,102521.00
2023-01-22T21:18:08.969Z,102561.00
2023-01-22T21:20:38.430Z,102546.00
2023-01-22T21:23:06.322Z,102565.00
2023-01-22T21:25:37.430Z,102529.00
2023-01-22T21:28:06.230Z,102569.00
2023-01-22T21:30:34.835Z,102562.00
2023-01-22T21:33:02.782Z,102566.00
2023-01-22T21:35:30.722Z,102561.00
2023-01-22T21:37:58.672Z,102558.00
2023-01-22T21:40:26.708Z,102515.00
2023-01-22T21:43:26.068Z,102536.00
2023-01-22T21:46:37.338Z,102576.00
2023-01-22T21:49:23.416Z,102520.00
2023-01-22T21:52:02.354Z,102520.00
2023-01-22T21:54:50.205Z,102542.00
2023-01-22T22:00:16.413Z,102551.00
2023-01-22T22:02:46.588Z,102542.00
2023-01-22T22:05:14.557Z,102522.00
2023-01-22T22:07:43.770Z,102529.00
2023-01-22T22:10:14.792Z,102534.00
2023-01-22T22:12:43.403Z,102567.00
2023-01-22T22:15:13.027Z,102522.00
2023-01-22T22:17:40.908Z,102561.00
2023-01-22T22:20:10.861Z,102557.00
2023-01-22T22:22:39.097Z,102555.00
2023-01-22T22:25:07.698Z,102572.00
2023-01-22T22:27:35.646Z,102572.00
2023-01-22T22:30:03.674Z,102520.00
2023-01-22T22:32:33.004Z,102520.00
2023-01-22T22:38:17.285Z,102573.00
2023-01-22T22:41:35.076Z,102535.00
2023-01-22T22:44:29.660Z,102556.00
2023-01-22T22:47:25.457Z,102540.00
2023-01-22T22:49:57.813Z,102526.00
2023-01-22T22:52:28.059Z,102557.00
2023-01-22T22:54:58.481Z,102574.00
2023-01-22T22:57:26.507Z,102570.00
2023-01-22T22:59:57.232Z,102582.00
2023-01-22T23:02:26.655Z,102574.00
2023-01-22T23:04:55.019Z,102568.00
2023-01-22T23:07:31.621Z,102562.00
2023-01-22T23:09:59.540Z,102597.00
2023-01-22T23:12:28.337Z,102591.00
2023-01-22T23:14:58.776Z,102600.00
2023-01-22T23:17:26.639Z,102570.00
2023-01-22T23:20:01.356Z,102586.00
2023-01-22T23:22:35.686Z,102612.00
2023-01-22T23:25:07.306Z,102558.00
2023-01-22T23:27:35.447Z,102615.00
2023-01-22T23:30:04.853Z,102555.00
2023-01-22T23:32:33.166Z,102607.00
2023-01-22T23:35:02.640Z,102609.00
2023-01-22T23:37:35.001Z,102583.00
2023-01-22T23:40:05.031Z,102616.00
2023-01-22T23:42:33.167Z,102630.00
2023-01-22T23:45:01.122Z,102567.00
2023-01-22T23:47:30.993Z,102586.00
2023-01-22T23:49:58.920Z,102633.00
2023-01-22T23:52:26.917Z,102587.00
2023-01-22T23:54:58.069Z,102629.00
2023-01-22T23:57:25.944Z,102575.00
2023-01-22T23:59:55.684Z,102600.00
